Time;durP1;ratioP1;P1;durP2;ratioP2;P2;SDS_P1;SDS_P2;PMS_P1;PMS_P2;Temp;Humidity;BMP_temperature;BMP_pressure;BME280_temperature;BME280_humidity;BME280_pressure;Samples;Min_cycle;Max_cycle;Signal;HPM_P1;HPM_P2
2021/04/17 00:02:06;;;;;;;12.23;8.07;;;12.80;83.50;;;13.62;42.68;102080.88;4944548;28;98763;-54
2021/04/17 00:04:33;;;;;;;7.93;6.67;;;12.70;83.50;;;13.57;42.82;102085.41;4929323;28;98040;-55
2021/04/17 00:06:59;;;;;;;8.40;5.47;;;12.60;84.00;;;13.54;43.23;102077.56;4926147;28;97541;-54
2021/04/17 00:09:28;;;;;;;11.07;7.43;;;12.50;84.30;;;13.55;41.99;102081.94;4926669;28;98582;-53
2021/04/17 00:11:57;;;;;;;8.90;6.93;;;12.60;80.90;;;13.46;42.93;102084.84;4925546;28;99632;-53
2021/04/17 00:14:29;;;;;;;7.73;6.73;;;12.50;82.90;;;13.31;41.63;102086.97;4926260;28;99634;-53
2021/04/17 00:16:55;;;;;;;6.60;5.27;;;12.40;81.90;;;13.31;42.55;102086.97;4933232;28;100118;-54
2021/04/17 00:19:21;;;;;;;8.40;6.70;;;12.40;84.30;;;13.25;43.58;102073.84;4928092;28;98661;-55
2021/04/17 00:21:47;;;;;;;8.30;6.60;;;12.30;85.50;;;13.14;42.01;102078.50;4931557;28;98536;-53
2021/04/17 00:24:13;;;;;;;10.17;7.03;;;12.30;82.30;;;13.20;43.47;102070.44;4929251;28;97642;-54
2021/04/17 00:26:39;;;;;;;9.30;6.80;;;12.30;83.10;;;13.12;42.32;102080.31;4933435;28;96927;-53
2021/04/17 00:29:06;;;;;;;8.27;6.60;;;12.30;82.10;;;13.15;43.74;102077.56;4931379;28;98399;-54
2021/04/17 00:31:33;;;;;;;9.43;7.10;;;12.20;83.00;;;13.14;42.29;102081.13;4928881;28;98664;-54
2021/04/17 00:34:00;;;;;;;9.47;7.30;;;12.30;83.40;;;13.19;42.58;102070.50;4948627;28;98368;-51
2021/04/17 00:36:26;;;;;;;9.97;6.60;;;12.30;82.00;;;13.20;42.88;102073.09;4929740;28;97799;-54
2021/04/17 00:38:52;;;;;;;7.97;6.77;;;12.30;82.80;;;13.23;43.54;102067.72;4933428;28;98849;-55
2021/04/17 00:41:18;;;;;;;7.50;6.60;;;12.30;83.60;;;13.25;42.73;102070.31;4930837;28;99714;-54
2021/04/17 00:43:44;;;;;;;6.60;5.70;;;12.40;82.40;;;13.21;43.84;102068.66;4931693;28;98965;-55
2021/04/17 00:46:11;;;;;;;7.07;5.20;;;12.30;83.60;;;13.25;43.43;102071.19;4952129;28;100171;-54
2021/04/17 00:48:42;;;;;;;6.17;5.17;;;12.40;81.50;;;13.29;43.50;102072.84;4913877;28;98445;-55
2021/04/17 00:51:10;;;;;;;6.27;5.33;;;12.30;83.40;;;13.34;43.53;102067.47;4932503;28;98516;-53
2021/04/17 00:53:36;;;;;;;7.43;6.00;;;12.40;83.30;;;13.32;42.98;102064.84;4942636;28;100099;-52
2021/04/17 00:56:09;;;;;;;7.70;5.10;;;12.40;82.20;;;13.39;43.52;102069.06;4949715;28;98863;-54
2021/04/17 00:58:35;;;;;;;8.43;6.90;;;12.40;83.00;;;13.38;42.60;102062.03;4938725;28;98205;-54
2021/04/17 01:01:03;;;;;;;4.63;3.67;;;12.40;81.40;;;13.45;42.72;102067.16;4936791;28;99509;-55
2021/04/17 01:03:35;;;;;;;4.30;3.37;;;12.50;82.90;;;13.48;43.32;102067.13;4927559;28;98768;-54
2021/04/17 01:06:28;;;;;;;7.67;6.20;;;12.60;83.60;;;13.48;42.76;102061.81;4935311;28;99616;-52
2021/04/17 01:09:08;;;;;;;5.30;4.80;;;12.60;79.80;;;13.51;41.59;102067.03;4915719;28;99963;-53
2021/04/17 01:12:16;;;;;;;4.43;3.23;;;12.60;82.70;;;13.57;42.79;102069.50;4929794;28;100259;-52
2021/04/17 01:14:51;;;;;;;4.60;2.73;;;12.60;83.50;;;13.60;42.90;102062.38;4924093;28;101903;-53
2021/04/17 01:17:19;;;;;;;12.17;7.53;;;12.60;82.80;;;13.54;41.82;102064.28;4932040;28;98916;-53
2021/04/17 01:20:00;;;;;;;9.20;6.27;;;12.60;80.80;;;13.62;42.09;102059.69;4940081;28;97148;-54
2021/04/17 01:22:26;;;;;;;4.27;3.43;;;12.70;79.70;;;13.74;42.62;102069.94;4931591;28;97289;-53
2021/04/17 01:25:10;;;;;;;3.30;2.50;;;13.00;81.40;;;13.86;42.32;102059.00;4929479;28;99780;-54
2021/04/17 01:27:37;;;;;;;3.23;2.47;;;13.20;80.50;;;13.95;41.92;102068.50;4931120;28;97185;-51
2021/04/17 01:30:19;;;;;;;2.90;2.63;;;13.40;79.80;;;14.11;41.92;102059.22;4947115;28;97876;-49
2021/04/17 01:32:47;;;;;;;2.57;2.00;;;13.60;80.10;;;14.21;41.61;102059.81;4949252;28;102954;-53
2021/04/17 01:35:19;;;;;;;5.80;3.83;;;13.70;81.20;;;14.36;40.74;102059.38;4928129;28;99144;-56
2021/04/17 01:37:53;;;;;;;6.13;4.87;;;14.00;76.50;;;14.48;40.33;102063.50;4951868;28;97206;-55
2021/04/17 01:40:26;;;;;;;6.57;4.73;;;14.10;75.60;;;14.55;40.66;102060.59;4926642;28;99288;-54
2021/04/17 01:42:53;;;;;;;4.23;3.83;;;14.10;76.90;;;14.56;39.26;102062.34;4934100;28;99668;-53
2021/04/17 01:45:24;;;;;;;6.17;3.07;;;14.10;74.50;;;14.69;39.99;102061.97;4917995;28;100223;-53
2021/04/17 01:47:53;;;;;;;2.30;1.93;;;14.30;77.20;;;14.90;40.10;102063.97;4933196;28;99096;-52
2021/04/17 01:50:19;;;;;;;2.53;2.33;;;14.60;78.20;;;14.97;40.13;102060.19;4924416;28;97507;-52
2021/04/17 01:52:47;;;;;;;3.77;2.37;;;14.70;77.50;;;15.14;39.50;102055.19;4932314;28;100110;-54
2021/04/17 01:55:16;;;;;;;3.80;3.37;;;15.00;76.80;;;15.25;39.34;102059.31;4926155;28;99092;-57
2021/04/17 01:57:43;;;;;;;2.67;2.00;;;15.10;74.70;;;15.35;39.37;102060.75;4917950;28;103442;-54
2021/04/17 02:00:10;;;;;;;2.23;2.03;;;15.20;75.50;;;15.43;39.23;102058.69;4948319;28;98960;-52
2021/04/17 02:02:36;;;;;;;2.57;2.00;;;15.30;75.30;;;15.34;38.91;102056.34;4944072;28;99973;-54
2021/04/17 02:05:02;;;;;;;4.03;2.73;;;15.10;70.80;;;15.29;39.17;102063.59;4934781;28;100478;-53
2021/04/17 02:07:28;;;;;;;2.77;2.20;;;14.90;76.30;;;15.28;39.38;102061.84;4925088;28;103967;-51
2021/04/17 02:09:55;;;;;;;2.50;2.10;;;14.90;74.80;;;15.09;39.76;102061.59;4950187;28;98274;-52
2021/04/17 02:12:20;;;;;;;5.53;4.87;;;14.50;74.00;;;14.97;39.42;102068.16;4944071;28;97536;-54
2021/04/17 02:14:46;;;;;;;5.60;4.83;;;14.30;73.10;;;14.77;39.29;102059.97;4947603;28;97644;-51
2021/04/17 02:17:17;;;;;;;4.10;3.57;;;13.90;71.40;;;14.74;40.25;102060.03;4931121;28;115939;-54
2021/04/17 02:20:01;;;;;;;5.73;3.63;;;13.90;77.80;;;14.68;40.58;102065.53;4929420;28;98449;-54
2021/04/17 02:22:27;;;;;;;7.13;5.20;;;13.90;75.40;;;14.61;40.29;102058.66;4928679;28;100006;-57
2021/04/17 02:24:54;;;;;;;5.97;4.37;;;13.90;73.90;;;14.64;40.25;102058.59;4930881;28;102419;-53
2021/04/17 02:27:21;;;;;;;1.87;1.60;;;14.00;76.60;;;14.78;40.20;102056.38;4904532;28;100886;-53
2021/04/17 02:29:52;;;;;;;5.63;4.10;;;14.30;78.90;;;14.75;40.07;102052.00;4946242;28;105153;-51
2021/04/17 02:32:19;;;;;;;2.40;2.07;;;14.30;73.60;;;14.82;39.94;102053.56;4920411;28;98251;-54
2021/04/17 02:34:45;;;;;;;3.87;2.97;;;14.40;76.20;;;14.89;40.06;102048.94;4926701;28;102873;-52
2021/04/17 02:37:12;;;;;;;6.20;5.03;;;14.50;76.50;;;14.88;39.79;102041.88;4933884;28;101404;-54
2021/04/17 02:39:40;;;;;;;1.93;1.80;;;14.50;73.80;;;14.85;39.88;102042.84;4926390;28;96926;-55
2021/04/17 02:42:07;;;;;;;3.57;2.77;;;14.40;75.80;;;14.76;39.96;102050.25;4945967;28;100427;-53
2021/04/17 02:44:33;;;;;;;5.23;4.50;;;14.10;73.10;;;14.66;40.13;102051.44;4927603;28;99097;-53
2021/04/17 02:46:59;;;;;;;6.90;5.20;;;13.90;73.90;;;14.49;37.36;102044.88;4947247;28;98404;-53
2021/04/17 02:49:25;;;;;;;7.53;5.50;;;13.70;72.70;;;14.36;40.52;102048.75;4913502;28;101139;-56
2021/04/17 02:51:51;;;;;;;5.73;5.13;;;13.40;73.50;;;14.17;40.41;102047.53;4946367;28;101510;-54
2021/04/17 02:54:17;;;;;;;6.27;5.50;;;13.10;74.70;;;14.02;40.70;102054.16;4944113;28;102028;-54
2021/04/17 02:56:43;;;;;;;4.40;3.00;;;12.90;75.80;;;13.88;41.64;102051.00;4944857;28;99777;-55
2021/04/17 02:59:08;;;;;;;7.87;5.67;;;12.70;78.60;;;13.67;37.54;102053.31;4941312;28;99730;-54
2021/04/17 03:01:34;;;;;;;7.27;5.63;;;12.70;75.50;;;13.69;41.62;102050.63;4928583;28;98802;-52
2021/04/17 03:04:00;;;;;;;8.60;4.43;;;12.70;78.60;;;13.57;41.87;102046.53;4915590;28;100479;-54
2021/04/17 03:06:26;;;;;;;3.50;3.20;;;12.60;78.20;;;13.45;43.00;102043.31;4927836;28;98646;-55
2021/04/17 03:08:52;;;;;;;7.97;3.97;;;12.40;81.40;;;13.49;42.67;102052.94;4943739;28;97723;-52
2021/04/17 03:11:18;;;;;;;3.37;2.97;;;12.40;79.90;;;13.52;42.84;102047.56;4947935;28;99337;-55
2021/04/17 03:13:44;;;;;;;7.23;5.07;;;12.50;77.50;;;13.53;42.95;102044.00;4928694;28;102053;-54
2021/04/17 03:16:10;;;;;;;2.80;2.43;;;12.60;80.00;;;13.56;42.76;102049.22;4943498;28;99309;-53
2021/04/17 03:18:36;;;;;;;4.47;3.87;;;12.70;81.00;;;13.64;42.53;102041.94;4908813;28;98421;-52
2021/04/17 03:21:03;;;;;;;3.17;2.60;;;12.80;78.20;;;13.69;42.76;102040.03;4927050;28;115031;-53
2021/04/17 03:23:29;;;;;;;2.63;2.37;;;12.80;80.50;;;13.74;42.49;102038.13;4942428;28;100221;-54
2021/04/17 03:25:54;;;;;;;2.67;2.30;;;13.00;79.10;;;13.78;42.59;102039.78;4944486;28;108863;-51
2021/04/17 03:28:20;;;;;;;3.47;2.97;;;12.90;80.70;;;13.89;42.11;102037.72;4964912;28;105614;-53
2021/04/17 03:30:46;;;;;;;2.17;1.97;;;13.20;78.70;;;13.98;41.97;102048.06;4960634;28;98046;-54
2021/04/17 03:33:12;;;;;;;2.50;2.30;;;13.30;82.40;;;14.07;41.68;102040.78;4953690;28;98735;-55
2021/04/17 03:35:38;;;;;;;3.93;1.90;;;13.50;77.90;;;14.15;41.27;102039.63;4940994;28;98114;-54
2021/04/17 03:38:04;;;;;;;1.70;1.60;;;13.70;78.80;;;14.44;40.80;102046.75;4967133;28;97392;-53
2021/04/17 03:40:31;;;;;;;3.03;2.73;;;14.10;79.90;;;14.58;40.74;102043.69;4946698;28;99831;-54
2021/04/17 03:42:59;;;;;;;1.70;1.60;;;14.30;76.50;;;14.81;40.14;102045.66;4968283;28;97049;-52
2021/04/17 03:45:26;;;;;;;4.40;2.73;;;14.60;78.40;;;14.83;40.37;102043.81;4947164;28;98845;-59
2021/04/17 03:47:52;;;;;;;2.17;1.70;;;14.60;74.40;;;14.83;40.28;102049.13;4965251;28;97156;-52
2021/04/17 03:50:18;;;;;;;2.07;1.70;;;14.50;78.00;;;14.94;40.11;102052.34;4971946;28;98847;-55
2021/04/17 03:52:45;;;;;;;1.57;1.47;;;14.70;77.90;;;15.20;39.77;102053.28;4948976;28;97170;-53
2021/04/17 03:55:14;;;;;;;2.37;2.03;;;15.10;76.90;;;15.28;39.58;102056.53;4967932;28;96991;-52
2021/04/17 03:57:41;;;;;;;3.03;1.43;;;15.20;75.40;;;15.27;39.46;102054.81;4947784;28;97451;-51
2021/04/17 04:00:10;;;;;;;1.57;1.40;;;15.20;75.20;;;15.27;39.21;102060.13;4950597;28;99780;-52
2021/04/17 04:02:37;;;;;;;2.30;2.10;;;15.10;76.10;;;15.29;39.18;102059.16;4951526;28;100217;-50
2021/04/17 04:05:05;;;;;;;3.07;2.13;;;15.10;72.80;;;15.28;39.19;102068.03;4952139;28;97011;-53
2021/04/17 04:07:31;;;;;;;5.53;4.53;;;15.00;75.40;;;15.19;38.05;102068.38;4948464;28;97292;-50
2021/04/17 04:09:57;;;;;;;4.47;3.67;;;14.90;69.70;;;15.18;39.61;102070.13;4951349;28;97391;-51
2021/04/17 04:12:23;;;;;;;2.43;1.53;;;14.70;77.30;;;15.18;39.18;102078.09;4952264;28;97920;-55
2021/04/17 04:14:49;;;;;;;2.33;1.67;;;14.90;73.90;;;15.17;39.30;102081.69;4951087;28;97404;-55
2021/04/17 04:17:14;;;;;;;2.67;1.57;;;14.80;75.80;;;15.04;39.54;102080.31;4951788;28;100808;-53
2021/04/17 04:19:40;;;;;;;4.00;3.60;;;14.50;76.70;;;14.94;39.49;102086.88;4938898;28;98175;-54
2021/04/17 04:22:06;;;;;;;5.33;3.67;;;14.40;71.10;;;14.80;38.79;102081.13;4949496;28;98901;-52
2021/04/17 04:24:32;;;;;;;5.77;4.80;;;14.10;72.80;;;14.69;39.43;102089.41;4961553;28;97588;-54
2021/04/17 04:26:58;;;;;;;4.50;3.00;;;13.90;71.40;;;14.56;40.33;102086.25;4934242;28;98106;-53
2021/04/17 04:29:24;;;;;;;2.03;1.83;;;13.70;77.10;;;14.45;40.72;102084.81;4974172;28;97635;-51
2021/04/17 04:31:50;;;;;;;6.77;4.17;;;13.60;75.00;;;14.36;40.78;102085.94;4930779;28;101567;-49
2021/04/17 04:34:16;;;;;;;7.10;5.33;;;13.50;75.50;;;14.28;40.73;102088.78;4974174;28;97203;-51
2021/04/17 04:36:41;;;;;;;7.93;5.87;;;13.30;75.00;;;14.19;40.42;102098.81;4949114;28;97683;-53
2021/04/17 04:39:07;;;;;;;3.67;2.63;;;13.20;74.90;;;14.09;41.66;102092.88;4956683;28;99002;-50
2021/04/17 04:41:35;;;;;;;2.37;2.17;;;13.10;76.80;;;14.06;41.54;102097.41;4969944;28;98114;-50
2021/04/17 04:44:03;;;;;;;4.63;3.73;;;13.10;81.60;;;14.01;41.40;102105.47;4970603;28;97622;-52
2021/04/17 04:46:31;;;;;;;2.30;2.10;;;13.10;77.50;;;13.99;41.67;102094.03;4970182;28;96992;-51
2021/04/17 04:48:57;;;;;;;5.07;3.17;;;13.10;80.60;;;13.97;41.94;102101.16;4954682;28;97254;-51
2021/04/17 04:51:24;;;;;;;7.90;5.37;;;13.10;80.80;;;13.99;41.42;102097.56;4974980;28;97392;-52
2021/04/17 04:53:50;;;;;;;5.97;3.67;;;13.20;78.80;;;14.02;41.49;102096.59;4948470;28;97668;-50
2021/04/17 04:56:15;;;;;;;4.07;2.57;;;13.30;76.30;;;14.04;41.62;102104.53;4955513;28;97317;-47
2021/04/17 04:58:41;;;;;;;4.60;2.77;;;13.30;76.50;;;14.04;41.71;102107.19;4944498;28;99911;-51
2021/04/17 05:01:07;;;;;;;2.37;2.13;;;13.30;77.30;;;14.00;41.89;102109.91;4974672;28;97806;-51
2021/04/17 05:03:33;;;;;;;2.10;1.77;;;13.10;77.70;;;13.94;41.75;102104.78;4962631;28;97210;-53
2021/04/17 05:05:59;;;;;;;7.37;5.40;;;13.00;78.20;;;13.87;40.78;102102.31;4953789;28;97658;-52
2021/04/17 05:08:24;;;;;;;6.83;4.57;;;12.80;76.00;;;13.80;41.88;102106.06;4954802;28;98769;-53
2021/04/17 05:10:50;;;;;;;6.57;4.93;;;12.70;76.60;;;13.72;42.08;102108.88;4950433;28;105443;-51
2021/04/17 05:13:16;;;;;;;6.10;5.23;;;12.50;78.90;;;13.61;42.30;102116.28;4962880;28;97145;-50
2021/04/17 05:15:42;;;;;;;6.80;5.30;;;12.40;78.60;;;13.53;41.66;102107.63;4966040;28;97077;-50
2021/04/17 05:18:08;;;;;;;7.30;5.43;;;12.30;77.50;;;13.46;42.69;102116.66;4948076;28;97854;-51
2021/04/17 05:20:33;;;;;;;5.97;5.20;;;12.20;78.50;;;13.37;42.76;102118.59;4941369;28;96881;-51
2021/04/17 05:22:59;;;;;;;4.80;3.10;;;12.10;80.00;;;13.27;42.95;102117.06;4932146;28;97027;-49
2021/04/17 05:25:25;;;;;;;3.50;2.70;;;12.00;78.70;;;13.18;43.18;102111.09;4942280;28;97651;-55
2021/04/17 05:27:51;;;;;;;9.07;5.43;;;11.80;79.50;;;13.13;43.70;102111.19;4966302;28;104643;-50
2021/04/17 05:30:18;;;;;;;11.13;3.20;;;11.80;81.80;;;13.08;43.60;102113.09;4951771;28;100071;-48
2021/04/17 05:32:44;;;;;;;3.47;2.90;;;11.80;79.60;;;13.01;43.93;102101.75;4950157;28;98091;-50
2021/04/17 05:35:11;;;;;;;8.07;5.37;;;11.70;80.30;;;13.01;43.83;102112.34;4934504;28;97079;-49
2021/04/17 05:37:37;;;;;;;4.03;3.53;;;11.70;81.30;;;12.97;44.09;102112.44;4948061;28;99478;-51
2021/04/17 05:40:05;;;;;;;7.60;5.77;;;11.60;81.80;;;12.96;43.92;102116.88;4955821;28;114724;-51
2021/04/17 05:42:30;;;;;;;8.20;6.00;;;11.60;82.00;;;12.96;43.59;102118.66;4950220;28;96925;-48
2021/04/17 05:44:56;;;;;;;3.83;3.17;;;11.60;81.80;;;12.97;44.03;102123.91;4951425;28;101540;-50
2021/04/17 05:47:22;;;;;;;3.97;3.23;;;11.60;81.80;;;12.97;44.31;102123.03;4972504;28;98964;-50
2021/04/17 05:49:48;;;;;;;6.43;3.70;;;11.60;83.70;;;12.99;44.18;102118.59;4937557;28;102420;-52
2021/04/17 05:52:13;;;;;;;8.53;4.20;;;11.60;83.00;;;12.97;43.95;102123.03;4950039;28;98449;-52
2021/04/17 05:54:39;;;;;;;7.13;4.77;;;11.60;82.50;;;12.93;44.21;102116.97;4964099;28;97751;-54
2021/04/17 05:57:05;;;;;;;3.43;2.37;;;11.50;83.10;;;12.91;44.30;102118.78;4932621;28;99222;-49
2021/04/17 05:59:31;;;;;;;5.03;3.40;;;11.50;83.10;;;12.87;44.53;102125.03;4945953;28;97380;-53
2021/04/17 06:01:57;;;;;;;4.33;2.83;;;11.40;83.40;;;12.87;44.59;102116.19;4950600;28;97197;-51
2021/04/17 06:04:23;;;;;;;3.30;2.83;;;11.40;83.90;;;12.85;44.47;102125.97;4972733;28;97587;-50
2021/04/17 06:06:49;;;;;;;5.60;4.10;;;11.40;84.10;;;12.80;44.29;102119.00;4964685;28;97230;-50
2021/04/17 06:09:15;;;;;;;6.13;4.20;;;11.40;83.30;;;12.76;44.58;102127.91;4970770;28;98245;-54
2021/04/17 06:11:41;;;;;;;8.97;5.53;;;11.30;84.10;;;12.74;44.44;102116.50;4946687;28;98259;-53
2021/04/17 06:14:07;;;;;;;8.70;6.80;;;11.30;83.70;;;12.13;41.16;102123.00;4955522;28;97595;-53
2021/04/17 06:16:33;;;;;;;11.97;7.57;;;11.00;83.20;;;10.81;43.51;102127.75;4957737;28;98800;-53
2021/04/17 06:18:59;;;;;;;12.00;8.90;;;9.40;88.70;;;9.56;47.03;102129.09;4952598;28;99551;-52
2021/04/17 06:21:25;;;;;;;10.97;8.10;;;8.10;92.20;;;8.61;48.69;102125.28;4946476;28;99073;-55
2021/04/17 06:23:51;;;;;;;12.47;8.63;;;7.40;93.10;;;8.05;49.64;102134.19;4948682;28;97056;-52
2021/04/17 06:26:17;;;;;;;11.93;8.47;;;7.00;93.50;;;7.67;50.09;102131.59;4963178;28;99888;-50
2021/04/17 06:28:42;;;;;;;16.27;8.53;;;6.80;93.60;;;7.35;50.38;102134.19;4948370;28;99050;-52
2021/04/17 06:31:08;;;;;;;12.23;8.63;;;6.70;93.40;;;7.16;50.71;102132.44;4955126;28;105259;-54
2021/04/17 06:33:34;;;;;;;14.47;9.07;;;6.70;93.30;;;7.00;51.57;102130.66;4943895;28;97185;-54
2021/04/17 06:36:03;;;;;;;14.50;10.90;;;6.60;93.80;;;6.95;52.06;102132.41;4960136;28;99452;-57
2021/04/17 06:38:29;;;;;;;14.20;9.73;;;6.60;94.00;;;6.86;52.10;102128.00;4956080;28;101515;-56
2021/04/17 06:40:55;;;;;;;11.13;8.80;;;6.50;94.00;;;6.80;52.32;102123.59;4970238;28;97079;-53
2021/04/17 06:43:22;;;;;;;11.50;8.00;;;6.50;94.00;;;7.02;54.32;102127.16;4948242;28;98748;-52
2021/04/17 06:45:53;;;;;;;16.73;9.17;;;6.80;94.50;;;7.03;51.43;102125.41;4966388;28;98583;-56
2021/04/17 06:48:22;;;;;;;17.00;8.77;;;7.00;93.30;;;7.19;51.21;102127.19;4965669;28;97506;-54
2021/04/17 06:50:49;;;;;;;12.53;8.00;;;7.10;93.10;;;7.30;52.17;102128.06;4939045;28;98052;-55
2021/04/17 06:53:19;;;;;;;12.53;8.37;;;7.30;93.30;;;7.77;50.07;102132.47;4965588;28;97516;-57
2021/04/17 06:55:54;;;;;;;9.87;6.93;;;7.70;92.60;;;8.31;49.81;102125.34;4945415;28;104389;-55
2021/04/17 06:58:20;;;;;;;10.70;8.43;;;8.20;92.50;;;8.19;48.76;102131.53;4926018;28;99205;-55
2021/04/17 07:00:47;;;;;;;12.67;8.33;;;8.10;91.30;;;8.25;49.10;102126.25;4961764;28;97200;-55
2021/04/17 07:03:16;;;;;;;12.53;8.43;;;8.10;91.70;;;8.19;48.91;102126.25;4950013;28;102096;-57
2021/04/17 07:05:42;;;;;;;12.70;8.10;;;8.10;91.90;;;8.49;50.06;102120.06;4948136;28;99423;-52
2021/04/17 07:08:08;;;;;;;13.40;7.60;;;8.30;92.20;;;8.55;48.70;102129.69;4967678;28;97323;-55
2021/04/17 07:10:34;;;;;;;11.97;8.07;;;8.50;91.30;;;8.51;48.77;102130.56;4962562;28;97224;-55
2021/04/17 07:13:15;;;;;;;11.63;8.10;;;8.40;91.40;;;8.40;49.33;102124.50;4945183;28;97355;-52
2021/04/17 07:15:43;;;;;;;11.40;7.63;;;8.20;91.90;;;8.31;49.02;102117.47;4948528;28;97720;-54
2021/04/17 07:18:29;;;;;;;10.20;7.23;;;8.20;91.70;;;8.70;49.12;102119.09;4932364;28;99566;-54
2021/04/17 07:21:14;;;;;;;14.50;7.03;;;8.60;92.00;;;8.71;49.48;102125.25;4947466;28;98302;-54
2021/04/17 07:23:44;;;;;;;8.57;5.90;;;8.50;91.50;;;9.31;48.98;102123.13;4936175;28;99177;-52
2021/04/17 07:26:15;;;;;;;13.03;7.90;;;9.20;91.70;;;9.14;47.79;102126.75;4951674;28;97697;-56
2021/04/17 07:29:13;;;;;;;13.27;7.63;;;9.00;90.70;;;9.66;46.58;102121.06;4944258;28;97668;-55
2021/04/17 07:31:53;;;;;;;6.93;5.50;;;9.60;90.20;;;9.62;48.89;102123.75;4926186;28;97228;-51
2021/04/17 07:34:25;;;;;;;10.43;5.70;;;9.40;91.40;;;10.46;46.28;102120.31;4950373;28;97354;-52
2021/04/17 07:36:58;;;;;;;7.00;4.77;;;10.40;89.00;;;11.63;45.31;102122.13;4934161;28;104430;-56
2021/04/17 07:39:40;;;;;;;7.37;4.70;;;11.80;88.20;;;12.49;40.74;102109.97;4947585;28;98277;-55
2021/04/17 07:42:15;;;;;;;9.90;5.03;;;12.90;79.70;;;12.91;42.07;102117.91;4958642;28;99769;-54
2021/04/17 07:44:47;;;;;;;7.40;4.50;;;13.20;81.30;;;12.71;41.89;102116.53;4928800;28;98499;-56
2021/04/17 07:47:34;;;;;;;7.93;4.40;;;12.80;81.20;;;13.25;38.91;102118.88;4950442;28;100163;-52
2021/04/17 07:50:08;;;;;;;6.30;4.07;;;13.60;76.50;;;13.72;39.83;102119.50;4945074;28;103272;-56
2021/04/17 07:52:35;;;;;;;8.40;4.80;;;13.90;78.00;;;13.49;37.40;102116.56;4941320;28;96970;-55
2021/04/17 07:55:04;;;;;;;10.73;4.70;;;13.50;73.10;;;13.34;39.98;102118.69;4960512;28;100536;-56
2021/04/17 07:57:35;;;;;;;11.37;4.27;;;13.10;77.60;;;13.88;39.66;102123.50;4947044;28;97684;-54
2021/04/17 08:00:03;;;;;;;10.00;4.07;;;14.10;77.30;;;14.20;38.43;102109.38;4948066;28;99462;-56
2021/04/17 08:02:31;;;;;;;6.63;4.07;;;14.50;74.70;;;14.37;38.33;102110.69;4948165;28;97421;-54
2021/04/17 08:04:59;;;;;;;10.20;4.73;;;14.60;74.50;;;14.58;38.04;102102.13;4946641;28;97128;-54
2021/04/17 08:07:28;;;;;;;8.57;4.93;;;14.90;73.10;;;13.91;35.37;102104.88;4948675;28;101447;-57
2021/04/17 08:09:57;;;;;;;9.03;5.70;;;13.90;70.00;;;13.19;36.13;102102.28;4946817;28;100128;-55
2021/04/17 08:12:25;;;;;;;8.50;4.60;;;12.60;72.80;;;13.31;39.49;102102.00;4950871;28;97382;-56
2021/04/17 08:14:51;;;;;;;11.93;6.13;;;12.80;77.60;;;12.87;37.55;102105.59;4934413;28;98891;-55
2021/04/17 08:17:21;;;;;;;11.70;6.47;;;12.50;74.70;;;12.98;38.08;102098.31;4929475;28;99086;-51
2021/04/17 08:19:47;;;;;;;11.37;6.40;;;12.70;75.60;;;12.70;38.18;102098.91;4966140;28;98318;-51
2021/04/17 08:22:15;;;;;;;9.83;6.17;;;12.30;76.20;;;12.20;39.77;102087.59;4942119;28;97410;-50
2021/04/17 08:24:41;;;;;;;6.63;4.83;;;11.80;79.20;;;12.52;38.68;102083.44;4949746;28;100585;-52
2021/04/17 08:27:08;;;;;;;8.60;6.30;;;12.20;77.80;;;12.33;39.06;102085.59;4930896;28;112287;-53
2021/04/17 08:29:53;;;;;;;7.97;4.93;;;12.00;76.80;;;12.88;40.84;102086.19;4949499;28;99299;-58
2021/04/17 08:32:42;;;;;;;8.83;5.77;;;12.70;80.00;;;12.47;41.73;102087.97;4943087;28;97171;-51
2021/04/17 08:35:14;;;;;;;6.23;3.83;;;12.20;80.80;;;12.58;40.21;102078.00;4933988;28;102161;-52
2021/04/17 08:37:54;;;;;;;7.57;5.03;;;12.40;78.60;;;12.04;38.82;102080.88;4950259;28;97553;-53
2021/04/17 08:40:33;;;;;;;9.80;5.27;;;11.70;77.00;;;11.66;39.01;102083.31;4954578;28;99635;-54
2021/04/17 08:43:00;;;;;;;8.87;4.97;;;11.30;77.50;;;11.73;39.53;102084.97;4945150;28;100843;-53
2021/04/17 08:45:27;;;;;;;10.47;3.97;;;11.40;77.80;;;12.32;39.65;102080.34;4930659;28;97410;-57
2021/04/17 08:47:56;;;;;;;8.33;4.60;;;12.20;78.70;;;12.44;41.19;102085.34;4949135;28;104109;-54
2021/04/17 08:50:40;;;;;;;9.50;5.50;;;12.30;79.00;;;12.35;38.48;102073.19;4970406;28;96929;-54
2021/04/17 08:53:17;;;;;;;6.23;3.97;;;12.20;75.60;;;12.40;41.50;102081.03;4933192;28;98811;-55
2021/04/17 08:55:43;;;;;;;7.93;4.57;;;12.30;81.10;;;11.62;39.87;102080.72;4927402;28;97367;-56
2021/04/17 08:58:25;;;;;;;5.00;3.10;;;11.50;77.40;;;12.68;41.06;102082.19;4961067;28;99410;-49
2021/04/17 09:00:51;;;;;;;5.27;3.23;;;12.90;80.90;;;13.50;39.80;102075.91;4951732;28;104517;-51
2021/04/17 09:03:47;;;;;;;8.30;5.27;;;13.90;77.00;;;13.02;39.79;102073.50;4949327;28;97300;-53
2021/04/17 09:06:25;;;;;;;6.17;4.80;;;12.90;74.70;;;12.32;39.42;102064.47;4963217;28;97752;-53
2021/04/17 09:09:16;;;;;;;6.67;4.57;;;12.10;76.70;;;12.34;38.99;102067.94;4945041;28;100420;-55
2021/04/17 09:11:44;;;;;;;4.37;3.27;;;12.10;76.30;;;12.50;41.15;102079.94;4949891;28;101647;-52
2021/04/17 09:14:34;;;;;;;7.90;4.93;;;12.40;79.00;;;12.03;40.55;102073.84;4952036;28;97237;-50
2021/04/17 09:17:09;;;;;;;4.70;3.30;;;11.90;78.30;;;12.21;39.90;102078.78;4967122;28;98142;-51
2021/04/17 09:19:41;;;;;;;6.57;3.90;;;12.00;77.90;;;12.50;39.90;102075.53;4964537;28;97955;-49
2021/04/17 09:22:31;;;;;;;4.30;2.90;;;12.40;77.40;;;12.79;38.74;102069.59;4970296;28;97278;-53
2021/04/17 09:25:11;;;;;;;9.60;4.87;;;12.70;76.20;;;13.03;37.79;102062.00;4963605;28;97346;-47
2021/04/17 09:27:41;;;;;;;4.93;3.33;;;13.00;73.90;;;13.49;39.59;102063.56;4969393;28;97815;-51
2021/04/17 09:30:20;;;;;;;2.87;2.00;;;13.40;76.70;;;13.86;38.80;102053.69;4948198;28;99371;-49
2021/04/17 09:32:57;;;;;;;7.00;4.30;;;13.90;75.40;;;13.51;37.36;102061.72;4952309;28;99166;-53
2021/04/17 09:35:37;;;;;;;5.90;4.23;;;13.40;72.50;;;13.52;37.04;102055.50;4964288;28;96801;-52
2021/04/17 09:38:16;;;;;;;7.93;4.37;;;13.40;73.20;;;13.63;36.75;102056.13;4966937;28;97460;-52
2021/04/17 09:40:53;;;;;;;4.77;2.03;;;13.50;73.10;;;14.22;38.46;102050.94;4962874;28;97561;-54
2021/04/17 09:43:33;;;;;;;4.20;2.60;;;14.40;74.90;;;14.25;37.74;102050.84;4955903;28;101963;-52
2021/04/17 09:46:15;;;;;;;4.57;3.30;;;14.30;71.80;;;14.20;33.77;102036.84;4943867;28;97003;-48
2021/04/17 09:48:43;;;;;;;3.90;1.80;;;14.40;66.50;;;14.62;37.50;102044.50;4958407;28;98773;-51
2021/04/17 09:51:29;;;;;;;3.43;2.60;;;14.80;73.00;;;14.74;33.19;102044.09;4965129;28;98844;-51
2021/04/17 09:54:07;;;;;;;5.93;2.53;;;15.10;65.80;;;14.89;36.21;102033.00;4944784;28;99960;-52
2021/04/17 09:56:41;;;;;;;2.27;1.50;;;15.10;69.70;;;14.97;34.90;102041.59;4953979;28;97375;-51
2021/04/17 09:59:17;;;;;;;2.93;2.00;;;15.30;67.50;;;15.07;35.25;102035.06;4935811;28;97717;-51
2021/04/17 10:01:59;;;;;;;5.53;2.30;;;15.30;68.00;;;15.12;33.47;102021.63;4949896;28;97743;-50
2021/04/17 10:04:51;;;;;;;3.30;2.07;;;15.40;65.70;;;15.12;34.56;102030.47;4966565;28;100437;-49
2021/04/17 10:07:19;;;;;;;1.97;1.37;;;15.40;66.90;;;15.05;34.03;102022.75;4951019;28;99914;-52
2021/04/17 10:10:03;;;;;;;1.80;1.30;;;15.40;65.60;;;14.97;33.47;102036.28;4930498;28;97404;-52
2021/04/17 10:12:29;;;;;;;2.47;1.33;;;15.30;64.60;;;15.03;33.43;102028.09;4925690;28;100439;-50
2021/04/17 10:15:25;;;;;;;5.07;2.27;;;15.40;64.00;;;15.10;33.88;102027.00;4928496;28;100198;-48
2021/04/17 10:17:55;;;;;;;3.30;2.00;;;15.50;64.30;;;15.28;33.55;102020.19;4925143;28;98920;-52
2021/04/17 10:20:22;;;;;;;4.23;2.13;;;15.60;64.60;;;15.30;33.54;102017.47;4946776;28;97386;-48
2021/04/17 10:22:57;;;;;;;4.60;2.30;;;15.60;64.10;;;15.38;33.59;102015.44;4928518;28;99619;-50